Time;durP1;ratioP1;P1;durP2;ratioP2;P2;SDS_P1;SDS_P2;PMS_P1;PMS_P2;Temp;Humidity;BMP_temperature;BMP_pressure;BME280_temperature;BME280_humidity;BME280_pressure;Samples;Min_cycle;Max_cycle;Signal;HPM_P1;HPM_P2
2021/04/24 00:01:34;;;;;;;11.35;5.53;;;6.90;39.50;;;;;;6113387;23;20185;-75
2021/04/24 00:04:01;;;;;;;8.73;5.35;;;6.80;40.10;;;;;;6115345;23;20185;-74
2021/04/24 00:06:28;;;;;;;7.43;5.35;;;6.70;39.90;;;;;;6116359;23;20189;-75
2021/04/24 00:08:55;;;;;;;7.78;5.10;;;6.70;40.10;;;;;;6117270;23;20627;-76
2021/04/24 00:11:23;;;;;;;8.85;6.28;;;6.60;40.30;;;;;;6117431;23;20165;-75
2021/04/24 00:13:50;;;;;;;10.68;5.25;;;6.50;40.40;;;;;;6118564;23;20179;-76
2021/04/24 00:16:18;;;;;;;8.55;5.30;;;6.50;41.50;;;;;;6117683;23;20217;-75
2021/04/24 00:18:44;;;;;;;7.65;5.78;;;6.40;42.30;;;;;;6118035;23;20196;-76
2021/04/24 00:21:12;;;;;;;9.77;6.55;;;6.30;42.40;;;;;;6111756;23;20228;-77
2021/04/24 00:23:38;;;;;;;9.02;5.70;;;6.20;43.00;;;;;;6097867;23;20557;-76
2021/04/24 00:26:05;;;;;;;7.65;5.93;;;6.10;43.50;;;;;;6098306;23;20228;-75
2021/04/24 00:28:31;;;;;;;8.82;5.22;;;6.10;44.30;;;;;;6097845;23;20192;-76
2021/04/24 00:30:57;;;;;;;7.75;4.70;;;6.00;44.10;;;;;;6099771;23;20209;-77
2021/04/24 00:33:25;;;;;;;10.20;5.82;;;6.00;44.20;;;;;;6099384;23;20257;-77
2021/04/24 00:35:51;;;;;;;10.77;6.20;;;6.00;44.00;;;;;;6098291;23;20233;-76
2021/04/24 00:38:18;;;;;;;9.70;5.25;;;5.90;44.40;;;;;;6096570;23;20189;-76
2021/04/24 00:40:44;;;;;;;11.10;5.80;;;5.80;45.00;;;;;;6099121;23;20212;-76
2021/04/24 00:43:12;;;;;;;7.45;5.50;;;5.80;46.10;;;;;;6100893;23;20231;-77
2021/04/24 00:45:39;;;;;;;10.52;5.35;;;5.80;46.30;;;;;;6100401;23;20224;-76
2021/04/24 00:48:06;;;;;;;8.68;5.15;;;5.70;46.50;;;;;;6099762;23;20319;-76
2021/04/24 00:50:36;;;;;;;8.05;5.50;;;5.70;46.50;;;;;;6100406;23;20236;-77
2021/04/24 00:53:04;;;;;;;7.75;5.30;;;5.70;46.50;;;;;;6103731;23;20186;-77
2021/04/24 00:55:31;;;;;;;11.40;5.65;;;5.60;46.40;;;;;;6106745;23;20213;-77
2021/04/24 00:57:59;;;;;;;6.80;5.75;;;5.60;46.40;;;;;;6113934;23;20204;-77
2021/04/24 01:00:26;;;;;;;9.90;6.63;;;5.60;46.40;;;;;;6102395;23;20264;-77
2021/04/24 01:02:53;;;;;;;8.98;5.68;;;5.50;46.30;;;;;;6101327;23;20331;-77
2021/04/24 01:05:21;;;;;;;9.13;5.97;;;5.50;46.30;;;;;;6099035;23;20213;-76
2021/04/24 01:07:48;;;;;;;8.23;5.40;;;5.50;47.50;;;;;;6098368;23;20265;-77
2021/04/24 01:10:16;;;;;;;9.90;6.45;;;5.40;46.80;;;;;;6097845;23;20256;-77
2021/04/24 01:12:44;;;;;;;9.80;5.93;;;5.40;47.30;;;;;;6096821;23;20503;-76
2021/04/24 01:15:12;;;;;;;6.47;5.13;;;5.40;47.70;;;;;;6097037;23;20655;-76
2021/04/24 01:17:39;;;;;;;11.70;6.18;;;5.40;47.90;;;;;;6102109;23;20224;-77
2021/04/24 01:20:08;;;;;;;10.52;6.00;;;5.40;47.50;;;;;;6099778;23;20233;-77
2021/04/24 01:22:35;;;;;;;11.35;5.13;;;5.40;47.60;;;;;;6100696;23;20186;-77
2021/04/24 01:25:03;;;;;;;6.70;5.40;;;5.30;47.70;;;;;;6101382;23;20205;-76
2021/04/24 01:27:30;;;;;;;8.85;5.22;;;5.30;48.20;;;;;;6098940;23;20628;-77
2021/04/24 01:29:56;;;;;;;8.95;5.35;;;5.30;47.90;;;;;;6102179;23;20220;-77
2021/04/24 01:32:23;;;;;;;12.70;5.13;;;5.30;47.90;;;;;;6102019;23;20328;-76
2021/04/24 01:34:49;;;;;;;7.13;5.40;;;5.20;48.10;;;;;;6104631;23;20205;-76
2021/04/24 01:37:17;;;;;;;10.23;5.40;;;5.20;48.10;;;;;;6109809;23;20545;-76
2021/04/24 01:39:44;;;;;;;8.10;5.50;;;5.10;48.40;;;;;;6112283;23;20240;-76
2021/04/24 01:42:10;;;;;;;10.23;5.95;;;5.10;48.50;;;;;;6103846;23;20628;-77
2021/04/24 01:44:37;;;;;;;7.50;5.63;;;5.00;48.70;;;;;;6100651;23;20723;-77
2021/04/24 01:47:03;;;;;;;7.63;4.75;;;5.00;49.10;;;;;;6100763;23;20205;-76
2021/04/24 01:49:29;;;;;;;8.07;5.40;;;4.90;49.10;;;;;;6122558;23;20189;-78
2021/04/24 01:51:56;;;;;;;10.95;5.68;;;4.90;49.20;;;;;;6122304;23;20170;-79
2021/04/24 01:54:22;;;;;;;10.18;5.22;;;4.90;48.50;;;;;;6101508;23;20261;-75
2021/04/24 01:56:52;;;;;;;9.73;5.35;;;4.90;47.70;;;;;;6095401;23;20205;-76
2021/04/24 01:59:21;;;;;;;8.57;5.72;;;5.00;47.50;;;;;;6096731;23;20189;-77
2021/04/24 02:01:49;;;;;;;6.82;5.35;;;4.90;47.40;;;;;;6096421;23;20189;-77
2021/04/24 02:04:17;;;;;;;9.93;5.40;;;4.90;47.10;;;;;;6096616;23;20240;-77
2021/04/24 02:06:44;;;;;;;9.15;4.97;;;4.90;47.00;;;;;;6096407;23;20203;-77
2021/04/24 02:09:13;;;;;;;9.43;5.03;;;4.90;47.10;;;;;;6097505;23;20195;-75
2021/04/24 02:12:01;;;;;;;8.15;5.15;;;4.90;47.00;;;;;;6097355;23;20260;-77
2021/04/24 02:14:28;;;;;;;6.35;4.65;;;4.90;47.00;;;;;;6100434;23;20168;-77
2021/04/24 02:16:54;;;;;;;9.50;5.25;;;4.80;46.90;;;;;;6096571;23;20228;-76
2021/04/24 02:19:21;;;;;;;8.00;5.10;;;4.80;47.20;;;;;;6096202;23;20185;-77
2021/04/24 02:21:47;;;;;;;5.95;4.32;;;4.80;47.80;;;;;;6096012;23;20185;-76
2021/04/24 02:24:14;;;;;;;9.32;5.25;;;4.70;48.60;;;;;;6096493;23;20188;-77
2021/04/24 02:26:40;;;;;;;6.72;4.80;;;4.70;48.00;;;;;;6094743;23;20686;-77
2021/04/24 02:29:07;;;;;;;12.73;5.53;;;4.70;48.20;;;;;;6095675;23;20199;-76
2021/04/24 02:31:34;;;;;;;11.05;5.43;;;4.70;47.40;;;;;;6097273;23;20260;-77
2021/04/24 02:34:00;;;;;;;14.93;4.93;;;4.80;47.00;;;;;;6098095;23;20286;-76
2021/04/24 02:36:27;;;;;;;14.18;6.10;;;4.90;47.20;;;;;;6097222;23;20604;-76
2021/04/24 02:38:54;;;;;;;7.47;5.18;;;4.80;47.10;;;;;;6104602;23;20233;-76
2021/04/24 02:41:20;;;;;;;8.18;5.28;;;4.80;47.30;;;;;;6110651;23;20189;-75
2021/04/24 02:43:47;;;;;;;8.65;5.15;;;4.80;47.50;;;;;;6110895;23;20189;-77
2021/04/24 02:46:15;;;;;;;10.40;5.00;;;4.70;47.70;;;;;;6102942;23;20202;-77
2021/04/24 02:48:41;;;;;;;7.13;4.90;;;4.60;48.20;;;;;;6100368;23;20185;-76
2021/04/24 02:51:07;;;;;;;8.55;5.57;;;4.60;48.80;;;;;;6099993;23;20189;-76
2021/04/24 02:53:34;;;;;;;6.93;5.43;;;4.60;48.50;;;;;;6097689;23;20473;-77
2021/04/24 02:56:00;;;;;;;8.82;4.93;;;4.70;48.50;;;;;;6097928;23;20212;-76
2021/04/24 02:58:27;;;;;;;10.23;5.53;;;4.60;48.70;;;;;;6095612;23;20189;-77
2021/04/24 03:00:53;;;;;;;6.80;4.75;;;4.50;49.10;;;;;;6098657;23;20225;-75
2021/04/24 03:03:20;;;;;;;9.30;5.15;;;4.50;49.60;;;;;;6099532;23;20185;-76
2021/04/24 03:05:47;;;;;;;7.70;5.30;;;4.40;50.10;;;;;;6099437;23;20725;-76
2021/04/24 03:08:13;;;;;;;6.70;5.40;;;4.40;50.90;;;;;;6096391;23;20186;-77
2021/04/24 03:10:41;;;;;;;6.90;5.22;;;4.30;50.90;;;;;;6096565;23;20188;-76
2021/04/24 03:13:09;;;;;;;9.60;5.25;;;4.20;51.60;;;;;;6098222;23;20237;-75
2021/04/24 03:15:36;;;;;;;10.57;5.40;;;4.20;51.80;;;;;;6107368;23;20237;-77
2021/04/24 03:18:02;;;;;;;8.70;4.75;;;4.10;52.10;;;;;;6097661;23;20571;-77
2021/04/24 03:20:29;;;;;;;10.10;5.40;;;4.10;51.70;;;;;;6105961;23;20186;-76
2021/04/24 03:22:58;;;;;;;11.20;4.95;;;4.20;51.60;;;;;;6105971;23;20185;-76
2021/04/24 03:25:25;;;;;;;8.35;4.85;;;4.10;51.40;;;;;;6100799;23;20652;-76
2021/04/24 03:27:51;;;;;;;9.55;5.05;;;4.10;51.00;;;;;;6099431;23;20188;-77
2021/04/24 03:30:18;;;;;;;5.35;3.80;;;4.00;51.00;;;;;;6099464;23;20246;-77
2021/04/24 03:32:45;;;;;;;9.00;4.18;;;4.00;50.90;;;;;;6098684;23;20216;-77
2021/04/24 03:35:11;;;;;;;5.35;4.20;;;4.00;50.40;;;;;;6098439;23;20209;-77
2021/04/24 03:37:39;;;;;;;7.43;4.57;;;4.10;49.90;;;;;;6098315;23;20208;-77
2021/04/24 03:40:07;;;;;;;7.43;4.38;;;4.10;49.60;;;;;;6098852;23;20667;-77
2021/04/24 03:42:33;;;;;;;5.97;4.18;;;4.10;49.60;;;;;;6096811;23;20228;-77
2021/04/24 03:44:59;;;;;;;6.03;4.28;;;4.10;50.60;;;;;;6096131;23;20233;-76
2021/04/24 03:47:26;;;;;;;7.75;4.10;;;4.10;49.70;;;;;;6096044;23;20220;-76
2021/04/24 03:49:52;;;;;;;6.57;4.60;;;4.00;49.80;;;;;;6096883;23;20217;-76
2021/04/24 03:52:19;;;;;;;9.85;5.45;;;4.10;49.80;;;;;;6097590;23;20240;-77
2021/04/24 03:54:46;;;;;;;5.15;3.78;;;4.00;49.80;;;;;;6097890;23;20702;-77
2021/04/24 03:57:12;;;;;;;8.80;4.72;;;4.00;49.80;;;;;;6098128;23;20206;-77
2021/04/24 03:59:39;;;;;;;6.93;4.72;;;4.00;49.90;;;;;;6100024;23;20185;-77
2021/04/24 04:02:05;;;;;;;7.30;4.60;;;4.00;50.20;;;;;;6101980;23;20331;-77
2021/04/24 04:04:31;;;;;;;10.38;5.00;;;3.90;49.80;;;;;;6102630;23;20740;-77
2021/04/24 04:06:58;;;;;;;5.25;4.40;;;3.90;49.70;;;;;;6105276;23;20181;-76
2021/04/24 04:09:24;;;;;;;8.88;4.65;;;3.90;49.70;;;;;;6102787;23;20211;-77
2021/04/24 04:11:51;;;;;;;10.38;4.30;;;3.80;50.20;;;;;;6100177;23;20197;-77
2021/04/24 04:14:18;;;;;;;9.15;4.60;;;3.80;50.40;;;;;;6098558;23;20217;-77
2021/04/24 04:16:44;;;;;;;9.18;4.75;;;3.70;50.70;;;;;;6100395;23;20247;-77
2021/04/24 04:19:11;;;;;;;6.72;4.28;;;3.70;50.80;;;;;;6099993;23;20181;-77
2021/04/24 04:21:38;;;;;;;7.82;5.30;;;3.80;50.70;;;;;;6099460;23;20669;-76
2021/04/24 04:24:05;;;;;;;9.27;5.72;;;3.80;50.90;;;;;;6102620;23;20264;-76
2021/04/24 04:26:31;;;;;;;7.60;5.15;;;3.70;51.20;;;;;;6106983;23;20201;-77
2021/04/24 04:29:00;;;;;;;11.10;5.18;;;3.80;51.50;;;;;;6113052;23;20200;-76
2021/04/24 04:31:26;;;;;;;9.27;5.30;;;3.80;51.30;;;;;;6108527;23;20213;-77
2021/04/24 04:33:56;;;;;;;9.18;5.63;;;3.80;51.60;;;;;;6113361;23;20185;-76
2021/04/24 04:36:22;;;;;;;10.70;5.20;;;3.80;51.60;;;;;;6114403;23;20208;-77
2021/04/24 04:38:49;;;;;;;8.27;4.95;;;3.90;51.40;;;;;;6105064;23;20479;-78
2021/04/24 04:41:15;;;;;;;10.20;5.70;;;4.00;51.30;;;;;;6098257;23;20185;-76
2021/04/24 04:43:42;;;;;;;7.82;5.20;;;4.00;50.80;;;;;;6098479;23;20192;-77
2021/04/24 04:46:09;;;;;;;9.40;6.03;;;4.10;50.30;;;;;;6098602;23;20201;-77
2021/04/24 04:48:35;;;;;;;8.20;5.38;;;4.30;50.00;;;;;;6098394;23;20189;-76
2021/04/24 04:51:02;;;;;;;10.00;4.85;;;4.50;49.20;;;;;;6098216;23;20208;-77
2021/04/24 04:53:28;;;;;;;8.77;5.20;;;4.60;48.50;;;;;;6098438;23;20264;-77
2021/04/24 04:55:54;;;;;;;6.70;5.25;;;4.80;47.70;;;;;;6097443;23;20706;-77
2021/04/24 04:58:21;;;;;;;12.13;6.03;;;5.00;47.00;;;;;;6097017;23;20235;-77
2021/04/24 05:00:47;;;;;;;7.75;5.65;;;5.40;46.20;;;;;;6097353;23;20260;-77
2021/04/24 05:03:15;;;;;;;8.25;5.22;;;5.70;45.40;;;;;;6097044;23;20229;-77
2021/04/24 05:05:41;;;;;;;7.85;4.85;;;5.90;43.90;;;;;;6097047;23;20750;-77
2021/04/24 05:08:07;;;;;;;11.13;5.18;;;6.00;43.80;;;;;;6096526;23;20185;-77
2021/04/24 05:10:34;;;;;;;9.73;5.18;;;6.30;42.20;;;;;;6097934;23;20185;-77
2021/04/24 05:13:00;;;;;;;7.60;4.80;;;6.30;42.20;;;;;;6097973;23;20489;-77
2021/04/24 05:15:27;;;;;;;9.02;5.70;;;6.50;42.00;;;;;;6097723;23;20707;-76
2021/04/24 05:17:53;;;;;;;7.75;5.50;;;6.70;41.50;;;;;;6098168;23;20201;-76
2021/04/24 05:20:21;;;;;;;11.43;6.75;;;6.70;41.50;;;;;;6100189;23;20220;-77
2021/04/24 05:22:48;;;;;;;10.32;6.90;;;6.90;41.00;;;;;;6101153;23;20219;-76
2021/04/24 05:25:16;;;;;;;12.27;6.15;;;7.30;40.60;;;;;;6100489;23;20260;-77
2021/04/24 05:27:44;;;;;;;9.98;5.45;;;7.50;39.00;;;;;;6098926;23;20185;-76
2021/04/24 05:30:12;;;;;;;10.15;6.18;;;7.60;39.10;;;;;;6099831;23;20220;-77
2021/04/24 05:32:38;;;;;;;10.75;6.50;;;7.70;38.50;;;;;;6100052;23;20612;-77
2021/04/24 05:35:06;;;;;;;8.70;6.20;;;7.80;38.60;;;;;;6107280;23;20232;-77
2021/04/24 05:37:33;;;;;;;12.23;6.40;;;8.10;38.80;;;;;;6103402;23;20197;-75
2021/04/24 05:39:59;;;;;;;11.23;6.60;;;8.10;38.80;;;;;;6102376;23;20192;-77
2021/04/24 05:42:26;;;;;;;8.68;6.10;;;8.00;38.80;;;;;;6113058;23;20212;-77
2021/04/24 05:44:52;;;;;;;9.10;6.38;;;8.00;38.80;;;;;;6099315;23;20237;-76
2021/04/24 05:47:20;;;;;;;9.30;5.88;;;8.00;38.80;;;;;;6100540;23;20256;-77
2021/04/24 05:49:46;;;;;;;10.82;6.78;;;8.00;38.80;;;;;;6100497;23;20192;-77
2021/04/24 05:52:12;;;;;;;11.57;6.65;;;8.00;38.80;;;;;;6099142;23;20185;-76
2021/04/24 05:54:40;;;;;;;8.65;7.20;;;7.90;39.20;;;;;;6099370;23;20223;-77
2021/04/24 05:57:06;;;;;;;10.23;6.97;;;7.80;39.80;;;;;;6100939;23;20292;-77
2021/04/24 05:59:33;;;;;;;14.57;7.00;;;7.50;40.40;;;;;;6109542;23;20255;-76
2021/04/24 06:01:59;;;;;;;8.65;6.90;;;7.60;40.90;;;;;;6122159;23;20185;-75
2021/04/24 06:04:26;;;;;;;12.30;8.23;;;8.00;39.50;;;;;;6110484;23;20181;-77
2021/04/24 06:06:52;;;;;;;9.48;6.57;;;8.40;39.10;;;;;;6099505;23;20188;-76
2021/04/24 06:09:18;;;;;;;14.98;7.25;;;8.10;38.80;;;;;;6102304;23;20177;-76
2021/04/24 06:11:46;;;;;;;12.45;6.78;;;8.50;39.90;;;;;;6100879;23;20312;-77
2021/04/24 06:14:12;;;;;;;11.68;7.38;;;8.30;39.00;;;;;;6102031;23;20185;-77
2021/04/24 06:16:38;;;;;;;12.88;7.05;;;8.40;39.10;;;;;;6099034;23;20287;-77
2021/04/24 06:19:05;;;;;;;9.70;6.40;;;8.70;38.70;;;;;;6101328;23;20241;-78
2021/04/24 06:21:31;;;;;;;11.73;7.10;;;8.80;38.00;;;;;;6101118;23;20185;-77
2021/04/24 06:23:57;;;;;;;12.77;7.00;;;9.00;37.80;;;;;;6102763;23;20190;-76
2021/04/24 06:26:24;;;;;;;15.77;7.05;;;8.80;37.00;;;;;;6107817;23;20232;-77
2021/04/24 06:28:51;;;;;;;8.45;6.80;;;8.50;37.80;;;;;;6120436;23;20185;-77
2021/04/24 06:31:18;;;;;;;10.82;6.68;;;8.00;38.80;;;;;;6116381;23;20210;-77
2021/04/24 06:33:44;;;;;;;9.70;6.70;;;7.80;38.60;;;;;;6113792;23;20184;-79
2021/04/24 06:36:11;;;;;;;10.93;6.13;;;7.80;38.60;;;;;;6117052;23;20189;-77
2021/04/24 06:38:38;;;;;;;11.68;6.47;;;8.00;38.80;;;;;;6118441;23;20192;-78
2021/04/24 06:41:04;;;;;;;9.25;6.22;;;8.10;37.80;;;;;;6116353;23;20185;-77
2021/04/24 06:43:31;;;;;;;8.48;6.35;;;8.20;37.40;;;;;;6108742;23;20185;-79
2021/04/24 06:45:58;;;;;;;10.73;5.35;;;8.00;37.90;;;;;;6106633;23;20209;-77
2021/04/24 06:48:25;;;;;;;8.80;5.82;;;8.00;37.40;;;;;;6118197;23;20185;-77
2021/04/24 06:50:52;;;;;;;6.68;5.50;;;8.20;37.40;;;;;;6119169;23;20165;-75
2021/04/24 06:53:18;;;;;;;7.95;5.18;;;8.40;36.00;;;;;;6120349;23;20209;-77
2021/04/24 06:55:45;;;;;;;10.52;6.38;;;8.50;36.40;;;;;;6119162;23;20194;-77
2021/04/24 06:58:11;;;;;;;7.63;5.65;;;8.50;36.20;;;;;;6118334;23;20205;-76
2021/04/24 07:00:38;;;;;;;6.88;5.55;;;8.60;35.60;;;;;;6119327;23;20196;-77
2021/04/24 07:03:05;;;;;;;9.88;4.85;;;8.70;35.30;;;;;;6116970;23;20185;-77
2021/04/24 07:05:43;;;;;;;10.07;5.60;;;8.70;35.70;;;;;;6117139;23;20257;-78
2021/04/24 07:08:09;;;;;;;7.13;4.93;;;8.80;35.40;;;;;;6109830;23;20167;-77
2021/04/24 07:10:36;;;;;;;7.93;5.22;;;9.00;35.30;;;;;;6104448;23;20213;-77
2021/04/24 07:13:02;;;;;;;7.57;5.82;;;9.20;34.70;;;;;;6103100;23;20581;-77
2021/04/24 07:15:29;;;;;;;13.73;6.13;;;9.30;34.20;;;;;;6110446;23;20278;-76
2021/04/24 07:17:55;;;;;;;11.30;5.95;;;9.40;35.00;;;;;;6112164;23;20252;-76
2021/04/24 07:20:23;;;;;;;12.65;5.55;;;9.40;34.30;;;;;;6104231;23;20692;-77
2021/04/24 07:22:49;;;;;;;9.52;5.50;;;9.50;34.30;;;;;;6101982;23;20185;-77
2021/04/24 07:25:16;;;;;;;9.80;5.90;;;9.70;34.50;;;;;;6098857;23;20205;-78
2021/04/24 07:27:43;;;;;;;6.45;5.00;;;9.80;33.40;;;;;;6102576;23;20181;-77
2021/04/24 07:30:11;;;;;;;11.68;5.75;;;9.80;33.60;;;;;;6103131;23;20268;-76
2021/04/24 07:32:38;;;;;;;7.60;4.75;;;9.80;33.60;;;;;;6105030;23;20217;-76
2021/04/24 07:35:06;;;;;;;8.68;5.93;;;10.00;32.50;;;;;;6104061;23;20735;-76
2021/04/24 07:37:33;;;;;;;7.18;5.22;;;10.20;31.80;;;;;;6102045;23;20204;-77
2021/04/24 07:40:00;;;;;;;8.80;5.60;;;10.40;30.90;;;;;;6101086;23;20216;-77
2021/04/24 07:42:26;;;;;;;10.00;5.55;;;10.50;31.40;;;;;;6098925;23;20233;-78
2021/04/24 07:44:53;;;;;;;6.80;5.53;;;10.70;30.70;;;;;;6100204;23;20224;-77
2021/04/24 07:47:19;;;;;;;8.48;5.80;;;11.00;30.40;;;;;;6099913;23;20209;-78
2021/04/24 07:49:46;;;;;;;8.07;5.55;;;11.20;30.60;;;;;;6101467;23;20792;-77
2021/04/24 07:52:14;;;;;;;7.15;4.90;;;11.20;30.60;;;;;;6103788;23;20236;-76
2021/04/24 07:54:42;;;;;;;8.07;5.15;;;11.40;29.60;;;;;;6107340;23;20208;-77
2021/04/24 07:57:09;;;;;;;13.43;4.65;;;11.30;29.50;;;;;;6103257;23;20255;-77
2021/04/24 07:59:36;;;;;;;7.68;4.50;;;11.30;30.00;;;;;;6110055;23;20195;-77
2021/04/24 08:02:02;;;;;;;5.47;4.60;;;11.30;29.30;;;;;;6108909;23;20185;-76
2021/04/24 08:04:29;;;;;;;7.35;4.93;;;11.50;29.00;;;;;;6102241;23;20754;-77
2021/04/24 08:06:55;;;;;;;6.38;5.53;;;11.50;28.50;;;;;;6098978;23;20181;-77
2021/04/24 08:09:21;;;;;;;5.82;4.70;;;11.40;29.10;;;;;;6103192;23;20216;-76
2021/04/24 08:11:49;;;;;;;7.38;5.30;;;11.70;28.70;;;;;;6101334;23;20189;-77
2021/04/24 08:14:15;;;;;;;6.05;4.80;;;11.80;28.30;;;;;;6098944;23;20181;-77
2021/04/24 08:16:42;;;;;;;10.38;5.15;;;11.90;28.50;;;;;;6098311;23;20260;-78
2021/04/24 08:19:08;;;;;;;7.15;4.70;;;12.10;28.10;;;;;;6098965;23;20192;-77
2021/04/24 08:21:34;;;;;;;8.27;4.60;;;12.10;27.20;;;;;;6098901;23;20568;-77
2021/04/24 08:24:01;;;;;;;14.88;6.22;;;12.10;27.80;;;;;;6098618;23;20560;-75
2021/04/24 08:26:29;;;;;;;9.98;5.30;;;12.30;28.20;;;;;;6104666;23;20552;-76
2021/04/24 08:28:56;;;;;;;6.07;4.53;;;12.30;27.30;;;;;;6106361;23;20185;-77
2021/04/24 08:31:23;;;;;;;6.78;4.60;;;12.40;27.80;;;;;;6109498;23;20195;-77
2021/04/24 08:33:50;;;;;;;8.07;4.15;;;12.70;27.00;;;;;;6098821;23;20491;-77
2021/04/24 08:36:16;;;;;;;8.68;5.35;;;12.80;26.70;;;;;;6101510;23;20236;-75
2021/04/24 08:38:43;;;;;;;10.52;4.85;;;12.90;26.70;;;;;;6100359;23;20185;-77
2021/04/24 08:41:09;;;;;;;8.82;5.00;;;13.10;25.80;;;;;;6104436;23;20639;-75
2021/04/24 08:43:37;;;;;;;7.28;4.93;;;13.20;25.90;;;;;;6099296;23;20489;-77
2021/04/24 08:46:05;;;;;;;8.80;4.93;;;13.30;26.10;;;;;;6103876;23;20205;-78
2021/04/24 08:48:32;;;;;;;6.63;4.90;;;13.40;25.80;;;;;;6101345;23;20462;-77
2021/04/24 08:50:59;;;;;;;11.63;4.72;;;13.10;26.50;;;;;;6102922;23;20612;-77
2021/04/24 08:53:25;;;;;;;9.95;4.90;;;13.30;26.50;;;;;;6105250;23;20182;-78
2021/04/24 08:55:52;;;;;;;10.18;5.38;;;13.50;25.70;;;;;;6100991;23;20236;-78
2021/04/24 08:58:19;;;;;;;9.05;5.05;;;13.50;25.50;;;;;;6096317;23;20205;-77
2021/04/24 09:00:47;;;;;;;11.13;5.13;;;13.70;24.90;;;;;;6096381;23;20242;-78
2021/04/24 09:03:19;;;;;;;9.60;5.38;;;13.70;25.00;;;;;;6101585;23;20185;-78
2021/04/24 09:05:46;;;;;;;6.25;4.88;;;13.90;24.50;;;;;;6105038;23;20211;-78
2021/04/24 09:08:13;;;;;;;6.93;4.70;;;14.10;24.60;;;;;;6112683;23;20181;-77
2021/04/24 09:10:44;;;;;;;9.15;5.50;;;14.20;24.70;;;;;;6115363;23;20185;-78
2021/04/24 09:13:16;;;;;;;8.10;5.18;;;14.20;24.30;;;;;;6106129;23;20181;-77
2021/04/24 09:15:43;;;;;;;7.25;5.20;;;14.20;24.70;;;;;;6116032;23;20233;-77
2021/04/24 09:18:12;;;;;;;8.95;5.63;;;14.10;24.60;;;;;;6113865;23;20197;-78
2021/04/24 09:20:46;;;;;;;8.00;5.05;;;14.30;24.80;;;;;;6102121;23;20640;-78
2021/04/24 09:23:14;;;;;;;6.97;5.10;;;14.40;24.50;;;;;;6096829;23;20201;-77
2021/04/24 09:25:46;;;;;;;9.07;5.65;;;14.60;23.90;;;;;;6097240;23;20535;-78
2021/04/24 09:28:23;;;;;;;14.27;6.03;;;14.80;23.10;;;;;;6096825;23;20169;-76
2021/04/24 09:30:50;;;;;;;7.77;5.10;;;14.90;22.90;;;;;;6097353;23;20188;-77
2021/04/24 09:33:17;;;;;;;7.15;4.65;;;15.10;22.80;;;;;;6097550;23;20449;-78
2021/04/24 09:35:47;;;;;;;9.60;5.40;;;15.10;22.50;;;;;;6097943;23;20714;-76
2021/04/24 09:38:26;;;;;;;10.23;5.40;;;15.30;22.60;;;;;;6098006;23;20523;-78
2021/04/24 09:41:14;;;;;;;5.80;5.13;;;15.20;22.60;;;;;;6097461;23;20178;-76
2021/04/24 09:43:57;;;;;;;10.30;6.03;;;15.40;22.50;;;;;;6097419;23;20380;-77
2021/04/24 09:46:26;;;;;;;10.05;5.78;;;15.50;22.20;;;;;;6096654;23;20631;-78
2021/04/24 09:49:10;;;;;;;6.70;5.35;;;15.20;22.70;;;;;;6098837;23;20185;-77
2021/04/24 09:51:42;;;;;;;9.45;6.10;;;15.30;22.20;;;;;;6112168;23;20209;-77
2021/04/24 09:54:09;;;;;;;7.55;5.20;;;15.50;22.20;;;;;;6097960;23;20199;-76
2021/04/24 09:56:36;;;;;;;14.20;6.57;;;15.70;21.70;;;;;;6096474;23;20217;-76
2021/04/24 09:59:04;;;;;;;8.93;6.10;;;16.00;21.10;;;;;;6097219;23;20915;-77
2021/04/24 10:01:34;;;;;;;17.33;6.20;;;16.20;21.00;;;;;;6102183;23;20395;-77
2021/04/24 10:04:02;;;;;;;7.60;5.10;;;16.50;20.40;;;;;;6115867;23;20387;-76
2021/04/24 10:06:31;;;;;;;7.73;5.50;;;15.90;21.10;;;;;;6118342;23;20441;-75
2021/04/24 10:09:33;;;;;;;13.87;5.83;;;16.00;20.80;;;;;;6104279;23;20441;-76
2021/04/24 10:12:09;;;;;;;10.60;5.93;;;16.50;19.70;;;;;;6097872;23;20794;-77
2021/04/24 10:14:37;;;;;;;7.40;5.67;;;16.50;19.50;;;;;;6100382;23;20409;-77
2021/04/24 10:17:06;;;;;;;12.63;5.63;;;16.60;19.00;;;;;;6096561;23;20475;-78
2021/04/24 10:19:35;;;;;;;9.43;6.73;;;16.70;18.60;;;;;;6098922;23;20852;-78
2021/04/24 10:22:03;;;;;;;12.47;6.47;;;17.00;18.50;;;;;;6098601;23;20441;-76
2021/04/24 10:24:30;;;;;;;8.17;5.83;;;17.10;18.60;;;;;;6097029;23;20409;-77
2021/04/24 10:26:57;;;;;;;17.73;5.80;;;17.20;18.60;;;;;;6096662;23;20523;-77
2021/04/24 10:29:24;;;;;;;8.30;5.53;;;17.30;18.70;;;;;;6099615;23;20380;-77
2021/04/24 10:31:51;;;;;;;10.67;6.20;;;17.20;18.70;;;;;;6099449;23;20463;-78
2021/04/24 10:34:18;;;;;;;7.87;6.00;;;17.60;17.50;;;;;;6101563;23;20412;-76
2021/04/24 10:36:45;;;;;;;8.20;5.97;;;17.40;18.70;;;;;;6103644;23;20460;-77
2021/04/24 10:39:17;;;;;;;7.10;5.47;;;17.50;18.20;;;;;;6102612;23;20424;-76
2021/04/24 10:41:48;;;;;;;9.33;5.97;;;17.40;17.90;;;;;;6099667;23;20372;-76
2021/04/24 10:44:16;;;;;;;13.43;6.57;;;17.50;18.00;;;;;;6105050;23;20410;-77
2021/04/24 10:46:47;;;;;;;7.50;5.30;;;17.50;17.80;;;;;;6100328;23;20441;-77
2021/04/24 10:49:27;;;;;;;11.40;6.03;;;17.60;17.70;;;;;;6108825;23;20425;-74
2021/04/24 10:52:06;;;;;;;8.00;6.53;;;17.60;17.80;;;;;;6120996;23;20424;-75
2021/04/24 10:54:36;;;;;;;9.60;5.90;;;17.60;17.20;;;;;;6121718;23;20388;-75
2021/04/24 10:57:18;;;;;;;13.13;6.53;;;17.50;17.80;;;;;;6121019;23;20453;-75
2021/04/24 10:59:54;;;;;;;7.57;6.03;;;17.60;16.90;;;;;;6121866;23;20421;-74
2021/04/24 11:02:21;;;;;;;10.27;6.47;;;17.80;17.10;;;;;;6121451;23;20425;-76
2021/04/24 11:04:49;;;;;;;8.90;6.40;;;17.50;16.50;;;;;;6121824;23;20429;-74
2021/04/24 11:07:27;;;;;;;7.67;5.43;;;17.40;16.20;;;;;;6121405;23;20372;-75
2021/04/24 11:10:29;;;;;;;10.87;7.67;;;17.40;16.00;;;;;;6113421;23;20368;-76
2021/04/24 11:12:59;;;;;;;10.00;6.67;;;17.40;15.50;;;;;;6115048;23;20417;-77
2021/04/24 11:15:27;;;;;;;12.00;7.07;;;17.60;14.70;;;;;;6114521;23;20434;-77
2021/04/24 11:17:56;;;;;;;15.50;7.43;;;17.70;15.30;;;;;;6115043;23;20445;-75
2021/04/24 11:20:51;;;;;;;9.60;7.20;;;17.90;14.20;;;;;;6113454;23;20428;-77
2021/04/24 11:23:42;;;;;;;11.20;6.33;;;17.80;13.90;;;;;;6113084;23;20438;-77
2021/04/24 11:26:10;;;;;;;7.00;6.03;;;17.90;14.90;;;;;;6116784;23;20441;-76
2021/04/24 11:29:01;;;;;;;11.73;6.50;;;17.90;14.90;;;;;;6113082;23;20411;-77
2021/04/24 11:31:49;;;;;;;9.20;6.80;;;17.60;15.50;;;;;;6111428;23;20414;-76
2021/04/24 11:34:34;;;;;;;9.47;5.43;;;17.80;15.10;;;;;;6111863;23;20463;-76
2021/04/24 11:37:33;;;;;;;9.20;6.20;;;18.10;15.10;;;;;;6113011;23;20404;-76
2021/04/24 11:40:08;;;;;;;10.60;6.77;;;18.20;14.00;;;;;;6107449;23;20372;-77
2021/04/24 11:42:37;;;;;;;10.70;6.13;;;18.60;13.10;;;;;;6099329;23;20437;-77
2021/04/24 11:45:15;;;;;;;9.43;6.13;;;18.90;12.70;;;;;;6099808;23;20763;-77
2021/04/24 11:47:50;;;;;;;9.93;6.77;;;18.90;13.00;;;;;;6098649;23;20369;-76
2021/04/24 11:50:18;;;;;;;6.87;5.93;;;18.80;12.10;;;;;;6101839;23;20416;-76
2021/04/24 11:52:55;;;;;;;13.50;6.23;;;18.90;11.40;;;;;;6114269;23;20376;-75
2021/04/24 11:55:21;;;;;;;9.50;6.10;;;18.90;11.40;;;;;;6114425;23;20461;-76
2021/04/24 11:57:48;;;;;;;11.70;6.13;;;19.00;10.40;;;;;;6105002;23;20433;-78
2021/04/24 12:00:28;;;;;;;9.90;6.30;;;18.90;10.30;;;;;;6099841;23;20726;-77
2021/04/24 12:02:54;;;;;;;10.67;6.13;;;18.80;10.60;;;;;;6104464;23;20376;-76
2021/04/24 12:05:20;;;;;;;7.60;6.23;;;19.00;10.40;;;;;;6104611;23;20417;-76
2021/04/24 12:07:48;;;;;;;8.83;5.40;;;18.60;10.30;;;;;;6103829;23;20380;-76
2021/04/24 12:10:16;;;;;;;7.60;5.30;;;18.30;9.20;;;;;;6100376;23;20390;-77
2021/04/24 12:12:44;;;;;;;6.20;4.33;;;18.80;8.60;;;;;;6103737;23;20425;-77
2021/04/24 12:15:13;;;;;;;8.57;4.57;;;19.00;8.70;;;;;;6103339;23;20414;-77
2021/04/24 12:17:49;;;;;;;9.97;5.30;;;18.90;7.90;;;;;;6104277;23;20477;-77
2021/04/24 12:20:20;;;;;;;8.50;5.10;;;19.10;8.50;;;;;;6114158;23;20480;-77
2021/04/24 12:22:47;;;;;;;7.30;5.27;;;19.10;9.10;;;;;;6104860;23;20406;-76
2021/04/24 12:25:16;;;;;;;10.70;5.60;;;19.50;7.90;;;;;;6116496;23;20392;-75
2021/04/24 12:27:44;;;;;;;8.43;4.97;;;19.90;7.70;;;;;;6117892;23;20417;-76
2021/04/24 12:30:18;;;;;;;8.63;5.30;;;19.60;9.00;;;;;;6106856;23;20441;-77
2021/04/24 12:32:46;;;;;;;11.80;5.90;;;19.70;9.10;;;;;;6098575;23;20372;-77
2021/04/24 12:35:17;;;;;;;7.60;5.00;;;19.40;9.00;;;;;;6096236;23;20407;-77
2021/04/24 12:37:45;;;;;;;11.70;4.93;;;19.50;8.80;;;;;;6097056;23;20592;-78
2021/04/24 12:40:15;;;;;;;9.00;6.87;;;19.40;9.50;;;;;;6098556;23;20528;-75
2021/04/24 12:42:42;;;;;;;9.33;7.17;;;19.60;9.70;;;;;;6100189;23;20623;-75
2021/04/24 12:45:12;;;;;;;10.77;6.50;;;19.50;10.30;;;;;;6101601;23;20415;-77
2021/04/24 12:47:39;;;;;;;9.87;6.63;;;19.50;10.10;;;;;;6102181;23;20511;-77
2021/04/24 12:50:13;;;;;;;10.53;6.53;;;19.80;9.90;;;;;;6100637;23;20479;-76
2021/04/24 12:52:45;;;;;;;9.13;6.60;;;19.90;10.20;;;;;;6110942;23;20500;-77
2021/04/24 12:55:14;;;;;;;8.10;6.87;;;20.00;9.90;;;;;;6111004;23;20488;-76
2021/04/24 12:57:55;;;;;;;11.13;5.90;;;19.60;9.70;;;;;;6101809;23;20527;-77